Kapitan Barmin — UHJL — position and weather

sailwx.info

Track history (hours):
 
Tides and Currents Weather Stations Pressure Air Temp Water Temp Dewpoint Dewpoint Depression Visibility Wind Speed Wind Dir Waves Ship Positions

Kapitan Barmin

Last reported at 2018-Apr-03 23:01 UTC. Time now 2018-Apr-24 07:08 UTC.
Position N 45°31' E 036°50'.
Warning: this ship's position is 20 days out of date.

Length 134 m; draft 3.2 m.

Type: Tanker. MMSI: 273423570.

Date/timePositionNaut miles runAvg speedWind from/ knotsBaromVisibWave heightAir tempDewpointWater temp
2018-Apr-03 23:01N 45°31' E 036°50'0 8.3
2018-Apr-03 23:00N 45°31' E 036°49'4 7.9
2018-Apr-03 22:30N 45°29' E 036°44'4 8.0
2018-Apr-03 22:00N 45°26' E 036°42'4 8.6
2018-Apr-03 21:31N 45°21' E 036°40'4 8.2
2018-Apr-03 21:01N 45°19' E 036°35'3 6.7
2018-Apr-03 20:30N 45°19' E 036°31'3 6.3
2018-Apr-03 20:00N 45°16' E 036°29'1 2.5
2018-Apr-03 19:30N 45°15' E 036°30'0 0.1
2018-Apr-03 18:54N 45°14' E 036°30'1 3.2
2018-Apr-03 18:30N 45°13' E 036°29'50 1.8
2018-Apr-02 14:38N 44°34' E 037°13'2 5.0
2018-Apr-02 14:12N 44°32' E 037°15'1 5.0
2018-Apr-02 13:58N 44°32' E 037°16'2 4.8
2018-Apr-02 13:31N 44°30' E 037°18'2 4.7
2018-Apr-02 12:59N 44°28' E 037°21'2 4.6
2018-Apr-02 12:30N 44°27' E 037°23'2 4.7
2018-Apr-02 12:00N 44°25' E 037°25'3 5.0
2018-Apr-02 11:30N 44°23' E 037°28'3 4.7
2018-Apr-02 10:58N 44°21' E 037°30'2 5.0
2018-Apr-02 10:30N 44°20' E 037°32'2 4.9
2018-Apr-02 10:00N 44°18' E 037°35'2 4.6
2018-Apr-02 09:29N 44°16' E 037°37'2 4.9
2018-Apr-02 08:59N 44°15' E 037°40'3 5.1
2018-Apr-02 08:23N 44°14' E 037°44'2 4.7
2018-Apr-02 07:57N 44°14' E 037°47'2 4.6
2018-Apr-02 07:29N 44°13' E 037°50'3 4.9
2018-Apr-02 06:56N 44°13' E 037°54'3 4.7
2018-Apr-02 06:22N 44°12' E 037°57'2 5.6
2018-Apr-02 06:00N 44°11' E 037°60'5 2.9
2018-Apr-02 04:21N 44°09' E 038°06'0 0.8
2018-Apr-02 03:53N 44°09' E 038°05'0 0.8
2018-Apr-02 03:23N 44°08' E 038°05'1 2.3
2018-Apr-02 02:45N 44°07' E 038°05'1 2.2
2018-Apr-02 02:27N 44°07' E 038°06'1 2.1
2018-Apr-02 02:00N 44°06' E 038°07'1 2.0
2018-Apr-02 01:30N 44°05' E 038°08'1 2.0
2018-Apr-02 01:00N 44°04' E 038°09'1 2.0
2018-Apr-02 00:30N 44°04' E 038°10'1 2.0
2018-Apr-02 00:00N 44°03' E 038°10'2 1.9
2018-Apr-01 23:01N 44°01' E 038°12'0 1.8
2018-Apr-01 23:00N 44°01' E 038°12'3 1.7
2018-Apr-01 21:24N 43°60' E 038°15'3 1.3
2018-Apr-01 19:26N 43°58' E 038°18'1 1.3
2018-Apr-01 19:00N 43°58' E 038°19'1 1.3
2018-Apr-01 18:29N 43°57' E 038°19'1 1.3
2018-Apr-01 18:00N 43°57' E 038°20'1 1.3
2018-Apr-01 17:07N 43°56' E 038°21'0 1.4
2018-Apr-01 17:00N 43°56' E 038°21'2 1.5
2018-Apr-01 15:46N 43°55' E 038°23'0 1.5
2018-Apr-01 15:30N 43°54' E 038°24'1 1.5
2018-Apr-01 14:56N 43°54' E 038°25'1 1.5
2018-Apr-01 14:30N 43°53' E 038°25'1 1.5
2018-Apr-01 13:56N 43°53' E 038°26'2 1.5
2018-Apr-01 12:34N 43°51' E 038°28'0 1.5
2018-Apr-01 12:23N 43°51' E 038°29'4 1.4
2018-Apr-01 09:12N 43°48' E 038°33'0 1.2
2018-Apr-01 09:00N 43°48' E 038°33'1 1.1
2018-Apr-01 08:29N 43°48' E 038°34'1 1.1
2018-Apr-01 07:24N 43°47' E 038°35'1 1.0
2018-Apr-01 06:36N 43°47' E 038°36'0 0.9
2018-Apr-01 06:11N 43°46' E 038°36'1 0.8
2018-Apr-01 05:04N 43°46' E 038°37'0 0.8
2018-Apr-01 04:55N 43°46' E 038°37'0 0.7
2018-Apr-01 04:30N 43°45' E 038°38'0 0.7
2018-Apr-01 03:59N 43°45' E 038°38'0 0.7
2018-Apr-01 03:30N 43°45' E 038°38'0 0.7
2018-Apr-01 02:59N 43°44' E 038°38'0 0.8
2018-Apr-01 02:29N 43°44' E 038°39'0 0.9
2018-Apr-01 01:57N 43°44' E 038°39'1 0.9
2018-Apr-01 01:01N 43°43' E 038°40'0 1.1
2018-Apr-01 00:56N 43°43' E 038°40'0 0.9
2018-Apr-01 00:28N 43°43' E 038°40'0 0.9
2018-Mar-31 23:58N 43°42' E 038°41'1 0.9
2018-Mar-31 23:20N 43°42' E 038°41'0 0.9
2018-Mar-31 23:00N 43°42' E 038°41'1 1.0
2018-Mar-31 22:30N 43°41' E 038°42'0 1.0
2018-Mar-31 22:00N 43°41' E 038°42'1 1.0
2018-Mar-31 21:28N 43°40' E 038°43'0 1.0
2018-Mar-31 21:00N 43°40' E 038°43'4 1.6
2018-Mar-31 18:35N 43°40' E 038°48'1 6.7
2018-Mar-31 18:26N 43°40' E 038°50'3 6.7
2018-Mar-31 17:58N 43°41' E 038°54'3 6.8
2018-Mar-31 17:29N 43°43' E 038°58'3 6.8
2018-Mar-31 17:00N 43°44' E 039°02'2 3.2
2018-Mar-31 16:30N 43°44' E 039°04'0 0.7
2018-Mar-31 16:00N 43°44' E 039°05'0 0.7
2018-Mar-31 15:30N 43°43' E 039°05'0 0.8
2018-Mar-31 14:59N 43°43' E 039°05'0 0.9
2018-Mar-31 14:30N 43°42' E 039°05'0 1.0
2018-Mar-31 14:00N 43°42' E 039°05'1 1.0
2018-Mar-31 13:30N 43°41' E 039°06'1 1.1
2018-Mar-31 13:00N 43°41' E 039°06'1 1.3
2018-Mar-31 12:30N 43°40' E 039°06'1 1.2
2018-Mar-31 11:58N 43°40' E 039°07'1 1.2
2018-Mar-31 11:30N 43°39' E 039°07'1 1.1
2018-Mar-31 10:56N 43°39' E 039°07'1 1.1
2018-Mar-31 10:26N 43°38' E 039°07'  
2018-Mar-27 07:02N 43°37' E 038°44'1 7.1
2018-Mar-27 06:52N 43°38' E 038°43'3 7.0
2018-Mar-27 06:28N 43°41' E 038°40'3 6.4
2018-Mar-27 06:00N 43°43' E 038°38'3 6.4
2018-Mar-27 05:30N 43°45' E 038°35'3 5.8
2018-Mar-27 04:59N 43°47' E 038°32'3 6.2
2018-Mar-27 04:27N 43°50' E 038°29'3 6.2
2018-Mar-27 04:00N 43°52' E 038°27'3 5.9
2018-Mar-27 03:29N 43°54' E 038°24'3 5.9
2018-Mar-27 02:59N 43°56' E 038°21'3 6.0
2018-Mar-27 02:29N 43°59' E 038°18'18 6.7
2018-Mar-26 23:44N 44°13' E 038°02'2 7.4
2018-Mar-26 23:27N 44°14' E 037°60'3 7.1
2018-Mar-26 23:00N 44°17' E 037°57'3 6.8
2018-Mar-26 22:30N 44°19' E 037°54'3 6.7
2018-Mar-26 22:00N 44°22' E 037°51'3 6.8
2018-Mar-26 21:30N 44°25' E 037°47'3 6.7
2018-Mar-26 21:00N 44°28' E 037°46'4 7.7
2018-Mar-26 20:30N 44°32' E 037°47'4 7.7
2018-Mar-26 20:00N 44°35' E 037°48'4 7.5
2018-Mar-26 19:30N 44°39' E 037°50'4 7.3
2018-Mar-26 19:00N 44°42' E 037°50'0 0.8
2018-Mar-26 18:28N 44°43' E 037°50'0 0.0
2018-Mar-26 17:59N 44°43' E 037°50'0 0.0
2018-Mar-26 17:26N 44°43' E 037°50'0 0.0
2018-Mar-26 16:58N 44°43' E 037°50'0 0.0
2018-Mar-26 16:29N 44°43' E 037°50'0 0.0
2018-Mar-26 16:00N 44°43' E 037°50'0 0.0
2018-Mar-26 15:29N 44°43' E 037°50'0 0.0
2018-Mar-26 14:58N 44°43' E 037°50'0 0.0
2018-Mar-26 14:29N 44°43' E 037°50'0 0.0
2018-Mar-26 14:00N 44°43' E 037°50'0 0.0
2018-Mar-26 13:28N 44°43' E 037°50'0 0.0
2018-Mar-26 12:58N 44°43' E 037°50'0 0.0
2018-Mar-26 12:20N 44°43' E 037°50'0 0.0
2018-Mar-26 11:57N 44°43' E 037°50'0 0.0
2018-Mar-26 11:28N 44°43' E 037°50'0 0.0
2018-Mar-26 10:58N 44°43' E 037°50'0 0.0
2018-Mar-26 10:29N 44°43' E 037°50'0 0.0
2018-Mar-26 09:58N 44°43' E 037°50'0 0.0
2018-Mar-26 09:30N 44°43' E 037°50'0 0.0
2018-Mar-26 08:58N 44°43' E 037°50'0 0.0
2018-Mar-26 08:28N 44°43' E 037°50'0 0.0
2018-Mar-26 07:59N 44°43' E 037°50'0 0.0
2018-Mar-26 07:29N 44°43' E 037°50'0 0.0
2018-Mar-26 07:00N 44°43' E 037°50'0 0.0
2018-Mar-26 06:23N 44°43' E 037°50'0 0.0
2018-Mar-26 05:59N 44°43' E 037°50'0 0.0
2018-Mar-26 05:28N 44°43' E 037°50'0 0.0
2018-Mar-26 05:00N 44°43' E 037°50'0 0.0
2018-Mar-26 04:30N 44°43' E 037°50'0 0.0
2018-Mar-26 04:00N 44°43' E 037°50'0 0.0
2018-Mar-26 03:30N 44°43' E 037°50'0 0.0
2018-Mar-26 02:59N 44°43' E 037°50'0 0.0
2018-Mar-26 02:24N 44°43' E 037°50'0 0.0
2018-Mar-26 02:00N 44°43' E 037°50'0 0.0
2018-Mar-26 01:29N 44°43' E 037°50'0 0.0
2018-Mar-26 00:54N 44°43' E 037°50'0 0.0
2018-Mar-26 00:30N 44°43' E 037°50'0 0.0
2018-Mar-25 23:58N 44°43' E 037°50'0 0.0
2018-Mar-25 23:29N 44°43' E 037°50'0 0.0
2018-Mar-25 23:00N 44°43' E 037°50'0 0.0
2018-Mar-25 22:28N 44°43' E 037°50'0 0.0
2018-Mar-25 21:59N 44°43' E 037°50'0 0.0
2018-Mar-25 21:30N 44°43' E 037°50'0 0.0
2018-Mar-25 20:54N 44°43' E 037°50'0 0.0
2018-Mar-25 20:30N 44°43' E 037°50'0 0.0
2018-Mar-25 19:59N 44°43' E 037°50'0 0.0
2018-Mar-25 19:30N 44°43' E 037°50'0 0.0
2018-Mar-25 18:56N 44°43' E 037°50'0 0.0
2018-Mar-25 18:30N 44°43' E 037°50'0 0.0
2018-Mar-25 18:00N 44°43' E 037°50'0 0.0
2018-Mar-25 17:30N 44°43' E 037°50'0 0.0
2018-Mar-25 17:00N 44°43' E 037°50'0 0.0
2018-Mar-25 16:30N 44°43' E 037°50'0 0.0
2018-Mar-25 16:00N 44°43' E 037°50'0 0.0
2018-Mar-25 15:28N 44°43' E 037°50'0 0.0
2018-Mar-25 14:57N 44°43' E 037°50'0 0.0
2018-Mar-25 14:25N 44°43' E 037°50'0 0.0
2018-Mar-25 13:59N 44°43' E 037°50'0 0.0
2018-Mar-25 13:28N 44°43' E 037°50'0 0.0
2018-Mar-25 12:55N 44°43' E 037°50'0 0.0
2018-Mar-25 12:28N 44°43' E 037°50'0 0.0
2018-Mar-25 11:53N 44°43' E 037°50'0 0.0
2018-Mar-25 11:29N 44°43' E 037°50'0 0.0
2018-Mar-25 10:58N 44°43' E 037°50'0 0.0
2018-Mar-25 10:29N 44°43' E 037°50'0 0.0
2018-Mar-25 09:58N 44°43' E 037°50'0 0.0
2018-Mar-25 09:28N 44°43' E 037°50'0 0.0
2018-Mar-25 08:59N 44°43' E 037°50'0 0.0
2018-Mar-25 08:30N 44°43' E 037°50'0 0.0
2018-Mar-25 07:58N 44°43' E 037°50'0 0.0
2018-Mar-25 07:28N 44°43' E 037°50'0 0.0
2018-Mar-25 07:00N 44°43' E 037°50'0 0.0
2018-Mar-25 06:30N 44°43' E 037°50'0 0.0
2018-Mar-25 05:59N 44°43' E 037°50'0 0.0
2018-Mar-25 05:29N 44°43' E 037°50'0 0.0
2018-Mar-25 04:57N 44°43' E 037°50'0 0.0
2018-Mar-25 04:27N 44°43' E 037°50'0 0.0
2018-Mar-25 04:00N 44°43' E 037°50'0 0.0
2018-Mar-25 03:30N 44°43' E 037°50'0 0.0
2018-Mar-25 02:59N 44°43' E 037°50'0 0.0
2018-Mar-25 02:30N 44°43' E 037°50'0 0.0
2018-Mar-25 02:00N 44°43' E 037°50'0 0.0
2018-Mar-25 01:29N 44°43' E 037°50'0 0.0
2018-Mar-25 00:59N 44°43' E 037°50'0 0.0
2018-Mar-25 00:29N 44°43' E 037°50'0 0.0
2018-Mar-24 23:59N 44°43' E 037°50'0 0.0
2018-Mar-24 23:29N 44°43' E 037°50'  
Track history (hours):
 
Tides and Currents Weather Stations Pressure Air Temp Water Temp Dewpoint Dewpoint Depression Visibility Wind Speed Wind Dir Waves Ship Positions

Kapitan Barmin

Last reported at 2018-Apr-03 23:01 UTC. Time now 2018-Apr-24 07:08 UTC.
Position N 45°31' E 036°50'.
Warning: this ship's position is 20 days out of date.

Length 134 m; draft 3.2 m.

Type: Tanker. MMSI: 273423570.

Date/timePositionNaut miles runAvg speedWind from/ knotsBaromVisibWave heightAir tempDewpointWater temp
2018-Apr-03 23:01N 45°31' E 036°50'0 8.3
2018-Apr-03 23:00N 45°31' E 036°49'4 7.9
2018-Apr-03 22:30N 45°29' E 036°44'4 8.0
2018-Apr-03 22:00N 45°26' E 036°42'4 8.6
2018-Apr-03 21:31N 45°21' E 036°40'4 8.2
2018-Apr-03 21:01N 45°19' E 036°35'3 6.7
2018-Apr-03 20:30N 45°19' E 036°31'3 6.3
2018-Apr-03 20:00N 45°16' E 036°29'1 2.5
2018-Apr-03 19:30N 45°15' E 036°30'0 0.1
2018-Apr-03 18:54N 45°14' E 036°30'1 3.2
2018-Apr-03 18:30N 45°13' E 036°29'50 1.8
2018-Apr-02 14:38N 44°34' E 037°13'2 5.0
2018-Apr-02 14:12N 44°32' E 037°15'1 5.0
2018-Apr-02 13:58N 44°32' E 037°16'2 4.8
2018-Apr-02 13:31N 44°30' E 037°18'2 4.7
2018-Apr-02 12:59N 44°28' E 037°21'2 4.6
2018-Apr-02 12:30N 44°27' E 037°23'2 4.7
2018-Apr-02 12:00N 44°25' E 037°25'3 5.0
2018-Apr-02 11:30N 44°23' E 037°28'3 4.7
2018-Apr-02 10:58N 44°21' E 037°30'2 5.0
2018-Apr-02 10:30N 44°20' E 037°32'2 4.9
2018-Apr-02 10:00N 44°18' E 037°35'2 4.6
2018-Apr-02 09:29N 44°16' E 037°37'2 4.9
2018-Apr-02 08:59N 44°15' E 037°40'3 5.1
2018-Apr-02 08:23N 44°14' E 037°44'2 4.7
2018-Apr-02 07:57N 44°14' E 037°47'2 4.6
2018-Apr-02 07:29N 44°13' E 037°50'3 4.9
2018-Apr-02 06:56N 44°13' E 037°54'3 4.7
2018-Apr-02 06:22N 44°12' E 037°57'2 5.6
2018-Apr-02 06:00N 44°11' E 037°60'5 2.9
2018-Apr-02 04:21N 44°09' E 038°06'0 0.8
2018-Apr-02 03:53N 44°09' E 038°05'0 0.8
2018-Apr-02 03:23N 44°08' E 038°05'1 2.3
2018-Apr-02 02:45N 44°07' E 038°05'1 2.2
2018-Apr-02 02:27N 44°07' E 038°06'1 2.1
2018-Apr-02 02:00N 44°06' E 038°07'1 2.0
2018-Apr-02 01:30N 44°05' E 038°08'1 2.0
2018-Apr-02 01:00N 44°04' E 038°09'1 2.0
2018-Apr-02 00:30N 44°04' E 038°10'1 2.0
2018-Apr-02 00:00N 44°03' E 038°10'2 1.9
2018-Apr-01 23:01N 44°01' E 038°12'0 1.8
2018-Apr-01 23:00N 44°01' E 038°12'3 1.7
2018-Apr-01 21:24N 43°60' E 038°15'3 1.3
2018-Apr-01 19:26N 43°58' E 038°18'1 1.3
2018-Apr-01 19:00N 43°58' E 038°19'1 1.3
2018-Apr-01 18:29N 43°57' E 038°19'1 1.3
2018-Apr-01 18:00N 43°57' E 038°20'1 1.3
2018-Apr-01 17:07N 43°56' E 038°21'0 1.4
2018-Apr-01 17:00N 43°56' E 038°21'2 1.5
2018-Apr-01 15:46N 43°55' E 038°23'0 1.5
2018-Apr-01 15:30N 43°54' E 038°24'1 1.5
2018-Apr-01 14:56N 43°54' E 038°25'1 1.5
2018-Apr-01 14:30N 43°53' E 038°25'1 1.5
2018-Apr-01 13:56N 43°53' E 038°26'2 1.5
2018-Apr-01 12:34N 43°51' E 038°28'0 1.5
2018-Apr-01 12:23N 43°51' E 038°29'4 1.4
2018-Apr-01 09:12N 43°48' E 038°33'0 1.2
2018-Apr-01 09:00N 43°48' E 038°33'1 1.1
2018-Apr-01 08:29N 43°48' E 038°34'1 1.1
2018-Apr-01 07:24N 43°47' E 038°35'1 1.0
2018-Apr-01 06:36N 43°47' E 038°36'0 0.9
2018-Apr-01 06:11N 43°46' E 038°36'1 0.8
2018-Apr-01 05:04N 43°46' E 038°37'0 0.8
2018-Apr-01 04:55N 43°46' E 038°37'0 0.7
2018-Apr-01 04:30N 43°45' E 038°38'0 0.7
2018-Apr-01 03:59N 43°45' E 038°38'0 0.7
2018-Apr-01 03:30N 43°45' E 038°38'0 0.7
2018-Apr-01 02:59N 43°44' E 038°38'0 0.8
2018-Apr-01 02:29N 43°44' E 038°39'0 0.9
2018-Apr-01 01:57N 43°44' E 038°39'1 0.9
2018-Apr-01 01:01N 43°43' E 038°40'0 1.1
2018-Apr-01 00:56N 43°43' E 038°40'0 0.9
2018-Apr-01 00:28N 43°43' E 038°40'0 0.9
2018-Mar-31 23:58N 43°42' E 038°41'1 0.9
2018-Mar-31 23:20N 43°42' E 038°41'0 0.9
2018-Mar-31 23:00N 43°42' E 038°41'1 1.0
2018-Mar-31 22:30N 43°41' E 038°42'0 1.0
2018-Mar-31 22:00N 43°41' E 038°42'1 1.0
2018-Mar-31 21:28N 43°40' E 038°43'0 1.0
2018-Mar-31 21:00N 43°40' E 038°43'4 1.6
2018-Mar-31 18:35N 43°40' E 038°48'1 6.7
2018-Mar-31 18:26N 43°40' E 038°50'3 6.7
2018-Mar-31 17:58N 43°41' E 038°54'3 6.8
2018-Mar-31 17:29N 43°43' E 038°58'3 6.8
2018-Mar-31 17:00N 43°44' E 039°02'2 3.2
2018-Mar-31 16:30N 43°44' E 039°04'0 0.7
2018-Mar-31 16:00N 43°44' E 039°05'0 0.7
2018-Mar-31 15:30N 43°43' E 039°05'0 0.8
2018-Mar-31 14:59N 43°43' E 039°05'0 0.9
2018-Mar-31 14:30N 43°42' E 039°05'0 1.0
2018-Mar-31 14:00N 43°42' E 039°05'1 1.0
2018-Mar-31 13:30N 43°41' E 039°06'1 1.1
2018-Mar-31 13:00N 43°41' E 039°06'1 1.3
2018-Mar-31 12:30N 43°40' E 039°06'1 1.2
2018-Mar-31 11:58N 43°40' E 039°07'1 1.2
2018-Mar-31 11:30N 43°39' E 039°07'1 1.1
2018-Mar-31 10:56N 43°39' E 039°07'1 1.1
2018-Mar-31 10:26N 43°38' E 039°07'  
2018-Mar-27 07:02N 43°37' E 038°44'1 7.1
2018-Mar-27 06:52N 43°38' E 038°43'3 7.0
2018-Mar-27 06:28N 43°41' E 038°40'3 6.4
2018-Mar-27 06:00N 43°43' E 038°38'3 6.4
2018-Mar-27 05:30N 43°45' E 038°35'3 5.8
2018-Mar-27 04:59N 43°47' E 038°32'3 6.2
2018-Mar-27 04:27N 43°50' E 038°29'3 6.2
2018-Mar-27 04:00N 43°52' E 038°27'3 5.9
2018-Mar-27 03:29N 43°54' E 038°24'3 5.9
2018-Mar-27 02:59N 43°56' E 038°21'3 6.0
2018-Mar-27 02:29N 43°59' E 038°18'18 6.7
2018-Mar-26 23:44N 44°13' E 038°02'2 7.4
2018-Mar-26 23:27N 44°14' E 037°60'3 7.1
2018-Mar-26 23:00N 44°17' E 037°57'3 6.8
2018-Mar-26 22:30N 44°19' E 037°54'3 6.7
2018-Mar-26 22:00N 44°22' E 037°51'3 6.8
2018-Mar-26 21:30N 44°25' E 037°47'3 6.7
2018-Mar-26 21:00N 44°28' E 037°46'4 7.7
2018-Mar-26 20:30N 44°32' E 037°47'4 7.7
2018-Mar-26 20:00N 44°35' E 037°48'4 7.5
2018-Mar-26 19:30N 44°39' E 037°50'4 7.3
2018-Mar-26 19:00N 44°42' E 037°50'0 0.8
2018-Mar-26 18:28N 44°43' E 037°50'0 0.0
2018-Mar-26 17:59N 44°43' E 037°50'0 0.0
2018-Mar-26 17:26N 44°43' E 037°50'0 0.0
2018-Mar-26 16:58N 44°43' E 037°50'0 0.0
2018-Mar-26 16:29N 44°43' E 037°50'0 0.0
2018-Mar-26 16:00N 44°43' E 037°50'0 0.0
2018-Mar-26 15:29N 44°43' E 037°50'0 0.0
2018-Mar-26 14:58N 44°43' E 037°50'0 0.0
2018-Mar-26 14:29N 44°43' E 037°50'0 0.0
2018-Mar-26 14:00N 44°43' E 037°50'0 0.0
2018-Mar-26 13:28N 44°43' E 037°50'0 0.0
2018-Mar-26 12:58N 44°43' E 037°50'0 0.0
2018-Mar-26 12:20N 44°43' E 037°50'0 0.0
2018-Mar-26 11:57N 44°43' E 037°50'0 0.0
2018-Mar-26 11:28N 44°43' E 037°50'0 0.0
2018-Mar-26 10:58N 44°43' E 037°50'0 0.0
2018-Mar-26 10:29N 44°43' E 037°50'0 0.0
2018-Mar-26 09:58N 44°43' E 037°50'0 0.0
2018-Mar-26 09:30N 44°43' E 037°50'0 0.0
2018-Mar-26 08:58N 44°43' E 037°50'0 0.0
2018-Mar-26 08:28N 44°43' E 037°50'0 0.0
2018-Mar-26 07:59N 44°43' E 037°50'0 0.0
2018-Mar-26 07:29N 44°43' E 037°50'0 0.0
2018-Mar-26 07:00N 44°43' E 037°50'0 0.0
2018-Mar-26 06:23N 44°43' E 037°50'0 0.0
2018-Mar-26 05:59N 44°43' E 037°50'0 0.0
2018-Mar-26 05:28N 44°43' E 037°50'0 0.0
2018-Mar-26 05:00N 44°43' E 037°50'0 0.0
2018-Mar-26 04:30N 44°43' E 037°50'0 0.0
2018-Mar-26 04:00N 44°43' E 037°50'0 0.0
2018-Mar-26 03:30N 44°43' E 037°50'0 0.0
2018-Mar-26 02:59N 44°43' E 037°50'0 0.0
2018-Mar-26 02:24N 44°43' E 037°50'0 0.0
2018-Mar-26 02:00N 44°43' E 037°50'0 0.0
2018-Mar-26 01:29N 44°43' E 037°50'0 0.0
2018-Mar-26 00:54N 44°43' E 037°50'0 0.0
2018-Mar-26 00:30N 44°43' E 037°50'0 0.0
2018-Mar-25 23:58N 44°43' E 037°50'0 0.0
2018-Mar-25 23:29N 44°43' E 037°50'0 0.0
2018-Mar-25 23:00N 44°43' E 037°50'0 0.0
2018-Mar-25 22:28N 44°43' E 037°50'0 0.0
2018-Mar-25 21:59N 44°43' E 037°50'0 0.0
2018-Mar-25 21:30N 44°43' E 037°50'0 0.0
2018-Mar-25 20:54N 44°43' E 037°50'0 0.0
2018-Mar-25 20:30N 44°43' E 037°50'0 0.0
2018-Mar-25 19:59N 44°43' E 037°50'0 0.0
2018-Mar-25 19:30N 44°43' E 037°50'0 0.0
2018-Mar-25 18:56N 44°43' E 037°50'0 0.0
2018-Mar-25 18:30N 44°43' E 037°50'0 0.0
2018-Mar-25 18:00N 44°43' E 037°50'0 0.0
2018-Mar-25 17:30N 44°43' E 037°50'0 0.0
2018-Mar-25 17:00N 44°43' E 037°50'0 0.0
2018-Mar-25 16:30N 44°43' E 037°50'0 0.0
2018-Mar-25 16:00N 44°43' E 037°50'0 0.0
2018-Mar-25 15:28N 44°43' E 037°50'0 0.0
2018-Mar-25 14:57N 44°43' E 037°50'0 0.0
2018-Mar-25 14:25N 44°43' E 037°50'0 0.0
2018-Mar-25 13:59N 44°43' E 037°50'0 0.0
2018-Mar-25 13:28N 44°43' E 037°50'0 0.0
2018-Mar-25 12:55N 44°43' E 037°50'0 0.0
2018-Mar-25 12:28N 44°43' E 037°50'0 0.0
2018-Mar-25 11:53N 44°43' E 037°50'0 0.0
2018-Mar-25 11:29N 44°43' E 037°50'0 0.0
2018-Mar-25 10:58N 44°43' E 037°50'0 0.0
2018-Mar-25 10:29N 44°43' E 037°50'0 0.0
2018-Mar-25 09:58N 44°43' E 037°50'0 0.0
2018-Mar-25 09:28N 44°43' E 037°50'0 0.0
2018-Mar-25 08:59N 44°43' E 037°50'0 0.0
2018-Mar-25 08:30N 44°43' E 037°50'0 0.0
2018-Mar-25 07:58N 44°43' E 037°50'0 0.0
2018-Mar-25 07:28N 44°43' E 037°50'0 0.0
2018-Mar-25 07:00N 44°43' E 037°50'0 0.0
2018-Mar-25 06:30N 44°43' E 037°50'0 0.0
2018-Mar-25 05:59N 44°43' E 037°50'0 0.0
2018-Mar-25 05:29N 44°43' E 037°50'0 0.0
2018-Mar-25 04:57N 44°43' E 037°50'0 0.0
2018-Mar-25 04:27N 44°43' E 037°50'0 0.0
2018-Mar-25 04:00N 44°43' E 037°50'0 0.0
2018-Mar-25 03:30N 44°43' E 037°50'0 0.0
2018-Mar-25 02:59N 44°43' E 037°50'0 0.0
2018-Mar-25 02:30N 44°43' E 037°50'0 0.0
2018-Mar-25 02:00N 44°43' E 037°50'0 0.0
2018-Mar-25 01:29N 44°43' E 037°50'0 0.0
2018-Mar-25 00:59N 44°43' E 037°50'0 0.0
2018-Mar-25 00:29N 44°43' E 037°50'0 0.0
2018-Mar-24 23:59N 44°43' E 037°50'0 0.0
2018-Mar-24 23:29N 44°43' E 037°50'  

Dump ship's entire track history